Time;durP1;ratioP1;P1;durP2;ratioP2;P2;SDS_P1;SDS_P2;PMS_P1;PMS_P2;Temp;Humidity;BMP_temperature;BMP_pressure;BME280_temperature;BME280_humidity;BME280_pressure;Samples;Min_cycle;Max_cycle;Signal;HPM_P1;HPM_P2
2022/12/20 00:01:21;;;;;;;9.07;3.53;;;8.60;99.90;;;;;;5011300;28;20045;-61
2022/12/20 00:03:52;;;;;;;7.05;3.03;;;8.70;99.90;;;;;;5030108;28;20049;-60
2022/12/20 00:06:18;;;;;;;10.13;3.53;;;8.80;99.90;;;;;;5030297;28;20415;-61
2022/12/20 00:08:45;;;;;;;8.02;2.85;;;8.90;99.90;;;;;;5029679;28;20103;-60
2022/12/20 00:11:11;;;;;;;9.82;3.03;;;9.00;99.90;;;;;;5029969;28;20132;-61
2022/12/20 00:13:37;;;;;;;6.85;4.03;;;9.00;99.90;;;;;;5028940;28;20046;-60
2022/12/20 00:16:15;;;;;;;4.35;2.58;;;9.10;99.90;;;;;;5030133;28;20045;-60
2022/12/20 00:18:41;;;;;;;4.68;2.00;;;9.20;99.90;;;;;;5029896;28;20049;-61
2022/12/20 00:21:10;;;;;;;6.57;2.90;;;9.20;99.90;;;;;;5029634;28;20046;-60
2022/12/20 00:23:36;;;;;;;8.52;3.10;;;9.30;99.90;;;;;;5030587;28;20064;-61
2022/12/20 00:26:11;;;;;;;3.72;2.78;;;9.30;99.90;;;;;;5028264;28;20044;-60
2022/12/20 00:28:39;;;;;;;7.68;2.85;;;9.20;99.90;;;;;;5030309;28;20045;-61
2022/12/20 00:31:05;;;;;;;6.13;2.90;;;9.20;99.90;;;;;;5028457;28;20406;-61
2022/12/20 00:33:33;;;;;;;7.10;2.90;;;9.20;99.90;;;;;;5012063;28;20045;-60
2022/12/20 00:35:59;;;;;;;8.15;3.42;;;9.10;99.90;;;;;;5028951;28;20053;-61
2022/12/20 00:38:25;;;;;;;8.02;3.13;;;9.10;99.90;;;;;;5029121;28;20060;-61
2022/12/20 00:41:20;;;;;;;5.47;2.40;;;9.00;99.90;;;;;;5029584;28;20124;-61
2022/12/20 00:43:46;;;;;;;6.75;2.85;;;9.00;99.90;;;;;;4994950;28;20080;-60
2022/12/20 00:46:14;;;;;;;4.50;2.67;;;9.00;99.90;;;;;;5022014;28;20063;-60
2022/12/20 00:48:40;;;;;;;8.30;4.03;;;8.90;99.90;;;;;;5028844;28;20156;-61
2022/12/20 00:51:09;;;;;;;10.52;5.18;;;8.90;99.90;;;;;;5028606;28;20052;-61
2022/12/20 00:53:35;;;;;;;8.98;4.60;;;8.80;99.90;;;;;;5029644;28;20049;-61
2022/12/20 00:56:02;;;;;;;14.80;6.47;;;8.80;99.90;;;;;;5028295;28;20084;-61
2022/12/20 00:58:28;;;;;;;9.95;6.20;;;8.80;99.90;;;;;;5029622;28;20041;-60
2022/12/20 01:00:55;;;;;;;8.60;6.72;;;8.80;99.90;;;;;;5008991;28;20487;-60
2022/12/20 01:03:21;;;;;;;7.75;5.63;;;8.80;99.90;;;;;;5010778;28;20403;-60
2022/12/20 01:05:55;;;;;;;10.02;5.65;;;8.80;99.90;;;;;;5028150;28;20053;-61
2022/12/20 01:08:22;;;;;;;8.38;3.80;;;8.80;99.90;;;;;;5029567;28;20049;-60
2022/12/20 01:11:06;;;;;;;5.85;4.00;;;8.70;99.90;;;;;;5029190;28;20103;-60
2022/12/20 01:13:35;;;;;;;5.78;4.00;;;8.70;99.90;;;;;;4998816;28;20049;-61
2022/12/20 01:16:07;;;;;;;6.05;3.67;;;8.70;99.90;;;;;;5011104;28;20128;-60
2022/12/20 01:18:33;;;;;;;6.07;4.10;;;8.70;99.90;;;;;;4980970;28;20514;-60
2022/12/20 01:21:05;;;;;;;6.18;3.33;;;8.70;99.90;;;;;;5028840;28;20045;-60
2022/12/20 01:23:31;;;;;;;6.10;3.80;;;8.60;99.90;;;;;;5028289;28;20041;-61
2022/12/20 01:25:59;;;;;;;3.85;2.90;;;8.60;99.90;;;;;;5028320;28;20127;-61
2022/12/20 01:28:25;;;;;;;4.80;3.40;;;8.60;99.90;;;;;;4991528;28;20473;-60
2022/12/20 01:30:51;;;;;;;8.35;2.65;;;8.60;99.90;;;;;;5017828;28;20052;-60
2022/12/20 01:33:17;;;;;;;3.22;2.65;;;8.60;99.90;;;;;;5028754;28;20037;-60
2022/12/20 01:35:53;;;;;;;5.65;2.75;;;8.60;99.90;;;;;;5027786;28;20100;-60
2022/12/20 01:38:18;;;;;;;3.03;2.40;;;8.60;99.90;;;;;;5028230;28;20065;-60
2022/12/20 01:40:44;;;;;;;7.25;2.70;;;8.60;99.90;;;;;;5010226;28;20123;-60
2022/12/20 01:43:13;;;;;;;3.53;2.75;;;8.60;99.90;;;;;;5028539;28;20041;-61
2022/12/20 01:45:39;;;;;;;9.20;3.33;;;8.60;99.90;;;;;;5028570;28;20048;-61
2022/12/20 01:48:06;;;;;;;2.60;2.17;;;8.60;99.90;;;;;;5027242;28;20045;-60
2022/12/20 01:50:33;;;;;;;5.53;3.05;;;8.60;99.90;;;;;;5029042;28;20110;-61
2022/12/20 01:53:02;;;;;;;6.07;3.28;;;8.60;99.90;;;;;;5009625;28;20056;-61
2022/12/20 01:55:30;;;;;;;10.27;3.20;;;8.60;99.90;;;;;;5026042;28;20045;-60
2022/12/20 01:57:59;;;;;;;4.35;3.08;;;8.60;99.90;;;;;;5018472;28;20081;-61
2022/12/20 02:00:24;;;;;;;10.23;3.15;;;8.60;99.90;;;;;;5000129;28;20175;-61
2022/12/20 02:02:50;;;;;;;4.80;2.78;;;8.60;99.90;;;;;;4999074;28;20132;-60
2022/12/20 02:05:18;;;;;;;7.88;2.67;;;8.60;99.90;;;;;;4998594;28;20038;-60
2022/12/20 02:07:48;;;;;;;6.00;3.10;;;8.60;99.90;;;;;;5011267;28;20049;-61
2022/12/20 02:10:15;;;;;;;4.80;3.05;;;8.60;99.90;;;;;;5007828;28;20530;-60
2022/12/20 02:12:44;;;;;;;5.38;3.10;;;8.60;99.90;;;;;;5009717;28;20522;-61
2022/12/20 02:15:22;;;;;;;8.27;2.55;;;8.60;99.90;;;;;;5015507;28;20061;-61
2022/12/20 02:18:15;;;;;;;2.33;2.05;;;8.60;99.90;;;;;;5025971;28;20045;-61
2022/12/20 02:21:04;;;;;;;5.22;2.60;;;8.60;99.90;;;;;;4985252;28;20106;-61
2022/12/20 02:23:49;;;;;;;1.63;1.52;;;8.60;99.90;;;;;;5016928;28;20095;-61
2022/12/20 02:26:23;;;;;;;5.90;2.67;;;8.60;99.90;;;;;;5010414;28;20092;-61
2022/12/20 02:29:02;;;;;;;3.08;2.60;;;8.60;99.90;;;;;;5007903;28;20123;-61
2022/12/20 02:31:38;;;;;;;4.70;2.88;;;8.70;99.90;;;;;;5011354;28;20041;-60
2022/12/20 02:34:06;;;;;;;6.25;2.25;;;8.70;99.90;;;;;;5011263;28;20399;-60
2022/12/20 02:36:32;;;;;;;4.13;2.47;;;8.70;99.90;;;;;;5009407;28;20599;-60
2022/12/20 02:38:57;;;;;;;5.03;2.47;;;8.60;99.90;;;;;;5012783;28;20136;-60
2022/12/20 02:41:28;;;;;;;3.80;2.80;;;8.60;99.90;;;;;;5021825;28;20122;-60
2022/12/20 02:46:47;;;;;;;7.03;3.05;;;8.60;99.90;;;;;;5027804;28;20072;-61
2022/12/20 02:49:17;;;;;;;5.55;3.30;;;8.60;99.90;;;;;;5026495;28;20419;-61
2022/12/20 02:51:46;;;;;;;10.77;2.78;;;8.50;99.90;;;;;;5027081;28;20486;-60
2022/12/20 02:54:12;;;;;;;5.15;2.53;;;8.60;99.90;;;;;;5026036;28;20469;-60
2022/12/20 02:56:50;;;;;;;7.07;2.60;;;8.60;99.90;;;;;;5026956;28;20128;-61
2022/12/20 02:59:29;;;;;;;4.72;2.60;;;8.60;99.90;;;;;;5015799;28;20041;-60
2022/12/20 03:01:56;;;;;;;7.03;3.10;;;8.50;99.90;;;;;;5008120;28;20060;-60
2022/12/20 03:04:26;;;;;;;10.98;3.67;;;8.60;99.90;;;;;;5026030;28;20041;-60
2022/12/20 03:07:02;;;;;;;;;;;8.60;99.90;;;;;;5021819;28;20053;-61
2022/12/20 03:09:31;;;;;;;8.38;2.67;;;8.50;99.90;;;;;;5022313;28;19940;-61
2022/12/20 03:11:58;;;;;;;3.45;3.08;;;8.60;99.90;;;;;;5020570;28;20041;-61
2022/12/20 03:14:25;;;;;;;4.28;2.42;;;8.60;99.90;;;;;;5025885;28;20046;-60
2022/12/20 03:16:51;;;;;;;3.33;2.45;;;8.60;99.90;;;;;;5027094;28;20049;-60
2022/12/20 03:19:17;;;;;;;4.05;2.97;;;8.70;99.90;;;;;;5007897;28;20477;-60
2022/12/20 03:21:43;;;;;;;4.05;2.28;;;8.70;99.90;;;;;;5009482;28;20061;-60
2022/12/20 03:24:10;;;;;;;4.90;2.40;;;8.70;99.90;;;;;;5028082;28;20045;-60
2022/12/20 03:26:36;;;;;;;2.85;2.65;;;8.80;99.90;;;;;;5030825;28;20124;-60
2022/12/20 03:29:03;;;;;;;4.03;2.97;;;8.70;99.90;;;;;;5031078;28;20519;-60
2022/12/20 03:31:29;;;;;;;5.68;3.28;;;8.70;99.90;;;;;;5011918;28;20089;-60
2022/12/20 03:33:55;;;;;;;5.50;3.63;;;8.70;99.90;;;;;;5013667;28;20041;-61
2022/12/20 03:36:22;;;;;;;5.78;4.10;;;8.60;99.90;;;;;;5029777;28;20371;-60
2022/12/20 03:38:52;;;;;;;8.48;3.83;;;8.60;99.90;;;;;;5031040;28;20045;-61
2022/12/20 03:41:20;;;;;;;8.05;3.80;;;8.60;99.90;;;;;;5029198;28;20079;-61
2022/12/20 03:43:47;;;;;;;9.73;5.05;;;8.50;99.90;;;;;;5013305;28;20084;-61
2022/12/20 03:46:13;;;;;;;5.90;3.75;;;8.50;99.90;;;;;;5031066;28;20041;-61
2022/12/20 03:48:38;;;;;;;6.70;3.97;;;8.50;99.90;;;;;;5029937;28;20559;-60
2022/12/20 03:51:05;;;;;;;6.82;2.90;;;8.50;99.90;;;;;;5012894;28;20057;-61
2022/12/20 03:53:31;;;;;;;4.35;2.90;;;8.50;99.90;;;;;;5025524;28;20123;-61
2022/12/20 03:55:56;;;;;;;5.65;3.67;;;8.40;99.90;;;;;;5031439;28;20424;-60
2022/12/20 03:58:22;;;;;;;2.95;2.70;;;8.50;99.90;;;;;;5029189;28;20589;-61
2022/12/20 04:00:48;;;;;;;4.88;2.85;;;8.40;99.90;;;;;;5013127;28;20053;-61
2022/12/20 04:03:14;;;;;;;5.05;2.80;;;8.40;99.90;;;;;;5030154;28;20044;-61
2022/12/20 04:05:40;;;;;;;4.43;2.78;;;8.40;99.90;;;;;;4991858;28;20399;-61
2022/12/20 04:08:06;;;;;;;6.07;2.42;;;8.40;99.90;;;;;;5021669;28;20042;-61
2022/12/20 04:10:31;;;;;;;3.95;2.30;;;8.40;99.90;;;;;;5029332;28;20533;-61
2022/12/20 04:12:57;;;;;;;3.53;2.03;;;8.50;99.90;;;;;;5012853;28;20107;-60
2022/12/20 04:15:22;;;;;;;6.45;2.83;;;8.50;99.90;;;;;;5010001;28;20041;-60
2022/12/20 04:17:48;;;;;;;2.90;2.58;;;8.50;99.90;;;;;;4997162;28;20076;-61
2022/12/20 04:20:18;;;;;;;4.25;2.90;;;8.50;99.90;;;;;;5029453;28;20038;-61
2022/12/20 04:22:49;;;;;;;5.85;2.60;;;8.50;99.90;;;;;;5030139;28;20422;-61
2022/12/20 04:25:18;;;;;;;7.50;2.88;;;8.50;99.90;;;;;;5012419;28;20041;-61
2022/12/20 04:27:44;;;;;;;7.65;3.03;;;8.50;99.90;;;;;;5029116;28;20041;-61
2022/12/20 04:30:11;;;;;;;5.35;2.78;;;8.50;99.90;;;;;;5008985;28;20506;-61
2022/12/20 04:32:37;;;;;;;6.65;3.15;;;8.50;99.90;;;;;;5021777;28;20041;-61
2022/12/20 04:35:03;;;;;;;4.15;2.92;;;8.50;99.90;;;;;;5029574;28;20033;-61
2022/12/20 04:37:30;;;;;;;4.60;2.50;;;8.50;99.90;;;;;;5028159;28;20054;-61
2022/12/20 04:39:57;;;;;;;2.58;2.38;;;8.40;99.90;;;;;;5030101;28;20069;-61
2022/12/20 04:42:23;;;;;;;8.02;3.35;;;8.40;99.90;;;;;;5029568;28;20041;-61
2022/12/20 04:44:49;;;;;;;4.85;2.50;;;8.40;99.90;;;;;;5028958;28;20049;-61
2022/12/20 04:47:15;;;;;;;8.60;2.88;;;8.40;99.90;;;;;;5030160;28;20088;-61
2022/12/20 04:49:41;;;;;;;9.95;3.20;;;8.50;99.90;;;;;;5028361;28;20049;-61
2022/12/20 04:54:51;;;;;;;5.65;3.17;;;8.50;99.90;;;;;;5028432;28;20073;-61
2022/12/20 04:57:17;;;;;;;2.70;2.10;;;8.50;99.90;;;;;;5029457;28;20071;-61
2022/12/20 04:59:42;;;;;;;8.38;2.03;;;8.50;99.90;;;;;;5007929;28;20061;-60
2022/12/20 05:02:08;;;;;;;4.70;2.95;;;8.50;99.90;;;;;;5026654;28;20064;-61
2022/12/20 05:04:34;;;;;;;3.55;2.70;;;8.60;99.90;;;;;;5029084;28;20048;-61
2022/12/20 05:06:59;;;;;;;2.90;2.47;;;8.60;99.90;;;;;;5028294;28;20042;-61
2022/12/20 05:09:25;;;;;;;7.57;3.20;;;8.60;99.90;;;;;;5029815;28;20569;-61
2022/12/20 05:11:51;;;;;;;8.07;2.60;;;8.60;99.90;;;;;;5010328;28;20048;-61
2022/12/20 05:14:17;;;;;;;4.18;2.20;;;8.60;99.90;;;;;;5029248;28;20087;-61
2022/12/20 05:16:43;;;;;;;5.28;2.40;;;8.60;99.90;;;;;;5028644;28;20042;-61
2022/12/20 05:19:08;;;;;;;4.30;2.50;;;8.70;99.90;;;;;;5028474;28;20045;-61
2022/12/20 05:27:21;;;;;;;5.90;3.30;;;8.70;99.90;;;;;;4932573;29;20082;-61
2022/12/20 05:29:47;;;;;;;4.05;3.00;;;8.80;99.90;;;;;;4999603;28;20062;-59
2022/12/20 05:32:13;;;;;;;6.10;2.15;;;8.80;99.90;;;;;;5028046;28;20042;-61
2022/12/20 05:34:39;;;;;;;3.58;2.70;;;8.80;99.90;;;;;;5028545;28;20050;-61
2022/12/20 05:37:06;;;;;;;4.45;2.40;;;8.90;99.90;;;;;;5027742;28;20057;-61
2022/12/20 05:39:32;;;;;;;5.53;2.90;;;8.90;99.90;;;;;;5029462;28;20061;-61
2022/12/20 05:41:59;;;;;;;2.53;1.83;;;8.90;99.90;;;;;;5009543;28;20045;-61
2022/12/20 05:44:25;;;;;;;2.67;1.73;;;8.90;99.90;;;;;;5028450;28;20171;-61
2022/12/20 05:46:50;;;;;;;6.10;2.85;;;9.00;99.90;;;;;;5027803;28;20072;-61
2022/12/20 05:49:16;;;;;;;6.53;2.30;;;9.00;99.90;;;;;;5010628;28;20057;-61
2022/12/20 05:51:42;;;;;;;3.72;2.25;;;9.10;99.90;;;;;;5010670;28;20061;-61
2022/12/20 05:54:08;;;;;;;4.88;2.25;;;9.10;99.90;;;;;;5009361;28;20045;-61
2022/12/20 05:56:34;;;;;;;4.30;2.33;;;9.10;99.90;;;;;;5028709;28;20084;-61
2022/12/20 05:59:06;;;;;;;6.97;2.85;;;9.10;99.90;;;;;;5027296;28;20553;-61
2022/12/20 06:01:32;;;;;;;6.15;3.20;;;9.10;99.90;;;;;;5007548;28;20050;-61
2022/12/20 06:03:58;;;;;;;3.83;2.45;;;9.10;99.90;;;;;;5025757;28;20041;-61
2022/12/20 06:06:23;;;;;;;4.25;1.73;;;9.10;99.90;;;;;;5010000;28;20091;-61
2022/12/20 06:08:49;;;;;;;4.15;2.33;;;9.20;99.90;;;;;;5022721;28;21009;-61
2022/12/20 06:11:15;;;;;;;3.58;2.28;;;9.20;99.90;;;;;;5015190;28;20044;-61
2022/12/20 06:13:40;;;;;;;6.88;2.20;;;9.20;99.90;;;;;;5009288;28;20038;-61
2022/12/20 06:16:06;;;;;;;1.98;1.60;;;9.20;99.90;;;;;;5026802;28;20061;-61
2022/12/20 06:18:32;;;;;;;4.38;2.63;;;9.20;99.90;;;;;;5010894;28;20093;-61
2022/12/20 06:20:58;;;;;;;4.22;1.95;;;9.20;99.90;;;;;;4981834;28;20473;-61
2022/12/20 06:23:24;;;;;;;7.50;3.13;;;9.30;99.90;;;;;;5011140;28;20038;-61
2022/12/20 06:25:50;;;;;;;5.70;2.38;;;9.20;99.90;;;;;;5009746;28;20076;-61
2022/12/20 06:28:20;;;;;;;4.13;2.60;;;9.20;99.90;;;;;;5025542;28;20081;-61
2022/12/20 06:30:56;;;;;;;;;;;9.20;99.90;;;;;;5028053;28;20839;-61
2022/12/20 06:33:21;;;;;;;4.18;2.42;;;9.30;99.90;;;;;;5008850;28;19921;-61
2022/12/20 06:35:49;;;;;;;3.70;2.10;;;9.30;99.90;;;;;;5009594;28;20041;-61
2022/12/20 06:38:14;;;;;;;3.70;2.50;;;9.30;99.90;;;;;;5026643;28;20048;-61
2022/12/20 06:40:40;;;;;;;5.45;3.10;;;9.30;99.90;;;;;;5027405;28;20057;-61
2022/12/20 06:43:07;;;;;;;3.80;2.50;;;9.30;99.90;;;;;;5026513;28;20084;-61
2022/12/20 06:45:33;;;;;;;2.78;1.48;;;9.40;99.90;;;;;;5026777;28;20467;-61
2022/12/20 06:47:58;;;;;;;2.42;2.20;;;9.40;99.90;;;;;;5027119;28;20512;-61
2022/12/20 06:50:26;;;;;;;1.50;1.35;;;9.40;99.90;;;;;;5026071;28;20041;-61
2022/12/20 06:52:52;;;;;;;7.07;2.38;;;9.40;99.90;;;;;;5026658;28;20103;-61
2022/12/20 06:55:18;;;;;;;4.75;2.65;;;9.40;99.90;;;;;;5026317;28;20034;-61
2022/12/20 06:57:45;;;;;;;6.10;2.45;;;9.50;99.90;;;;;;5027246;28;20043;-60
2022/12/20 07:00:12;;;;;;;3.53;2.63;;;9.50;99.90;;;;;;5009514;28;20052;-61
2022/12/20 07:02:38;;;;;;;7.05;2.67;;;9.50;99.90;;;;;;5026915;28;20399;-61
2022/12/20 07:05:04;;;;;;;6.60;2.38;;;9.50;99.90;;;;;;5026207;28;20484;-61
2022/12/20 07:07:30;;;;;;;3.05;2.17;;;9.50;99.90;;;;;;5026548;28;20045;-61
2022/12/20 07:09:56;;;;;;;7.35;2.35;;;9.50;99.90;;;;;;5026806;28;20061;-61
2022/12/20 07:12:22;;;;;;;4.00;2.35;;;9.50;99.90;;;;;;5025414;28;20511;-61
2022/12/20 07:14:48;;;;;;;4.43;2.20;;;9.60;99.90;;;;;;4995891;28;20133;-61
2022/12/20 07:17:14;;;;;;;4.28;2.50;;;9.60;99.90;;;;;;5026615;28;20584;-61
2022/12/20 07:19:41;;;;;;;3.60;2.38;;;9.60;99.90;;;;;;5027125;28;20042;-61
2022/12/20 07:22:07;;;;;;;2.70;2.50;;;9.60;99.90;;;;;;5026287;28;20041;-61
2022/12/20 07:24:33;;;;;;;4.07;2.20;;;9.70;99.90;;;;;;5026550;28;20159;-61
2022/12/20 07:27:02;;;;;;;6.68;2.47;;;9.70;99.90;;;;;;5026582;28;20124;-61
2022/12/20 07:29:28;;;;;;;3.97;2.55;;;9.70;99.90;;;;;;5026130;28;20046;-61
2022/12/20 07:31:54;;;;;;;2.75;1.98;;;9.70;99.90;;;;;;5026968;28;20052;-61
2022/12/20 07:34:20;;;;;;;3.55;2.38;;;9.60;99.90;;;;;;5026151;28;20049;-61
2022/12/20 07:36:46;;;;;;;4.97;2.90;;;9.60;99.90;;;;;;5026941;28;20050;-61
2022/12/20 07:39:12;;;;;;;8.85;2.92;;;9.60;99.90;;;;;;5026649;28;20060;-61
2022/12/20 07:41:38;;;;;;;6.55;2.65;;;9.50;99.90;;;;;;5026177;28;20064;-61
2022/12/20 07:44:05;;;;;;;8.48;3.00;;;9.50;99.90;;;;;;5026700;28;20084;-61
2022/12/20 07:46:30;;;;;;;2.80;2.55;;;9.50;99.90;;;;;;5008172;28;20045;-61
2022/12/20 07:48:56;;;;;;;4.18;2.90;;;9.50;99.90;;;;;;5026873;28;20044;-61
2022/12/20 07:51:30;;;;;;;7.50;2.97;;;9.50;99.90;;;;;;5026126;28;20054;-61
2022/12/20 07:54:03;;;;;;;10.82;3.45;;;9.50;99.90;;;;;;5008616;28;20076;-61
2022/12/20 07:56:32;;;;;;;8.50;3.00;;;9.50;99.90;;;;;;5026020;28;20080;-61
2022/12/20 07:58:59;;;;;;;4.90;2.75;;;9.50;99.90;;;;;;5025811;28;20088;-61
2022/12/20 08:01:28;;;;;;;6.53;3.10;;;9.50;99.90;;;;;;5026658;28;20045;-61
2022/12/20 08:04:00;;;;;;;4.32;3.22;;;9.50;99.90;;;;;;5025197;28;20476;-61
2022/12/20 08:06:27;;;;;;;3.10;1.95;;;9.50;99.90;;;;;;5026641;28;20049;-61
2022/12/20 08:08:57;;;;;;;15.38;3.25;;;9.50;99.90;;;;;;5025742;28;20128;-61
2022/12/20 08:11:24;;;;;;;9.85;3.83;;;9.50;99.90;;;;;;5028194;28;20206;-61
2022/12/20 08:13:50;;;;;;;6.93;2.88;;;9.50;99.90;;;;;;5030098;28;20128;-62
2022/12/20 08:16:16;;;;;;;3.10;2.80;;;9.50;99.90;;;;;;5028754;28;20041;-61
2022/12/20 08:18:42;;;;;;;3.33;2.90;;;9.50;99.90;;;;;;5030292;28;20056;-61
2022/12/20 08:21:11;;;;;;;10.90;3.45;;;9.50;99.90;;;;;;5011174;28;20041;-61
2022/12/20 08:23:37;;;;;;;7.97;3.13;;;9.50;99.90;;;;;;5030326;28;20041;-61
2022/12/20 08:26:03;;;;;;;5.30;3.05;;;9.50;99.90;;;;;;5010599;28;20536;-61
2022/12/20 08:28:29;;;;;;;4.20;2.63;;;9.50;99.90;;;;;;5012704;28;20061;-61
2022/12/20 08:31:02;;;;;;;8.23;3.33;;;9.60;99.90;;;;;;5029453;28;20112;-61
2022/12/20 08:33:29;;;;;;;6.05;3.03;;;9.60;99.90;;;;;;5030103;28;20384;-61
2022/12/20 08:36:01;;;;;;;8.07;3.10;;;9.60;99.90;;;;;;5029675;28;20116;-61
2022/12/20 08:38:28;;;;;;;4.40;3.03;;;9.60;99.90;;;;;;5028614;28;20395;-61
2022/12/20 08:40:54;;;;;;;5.68;3.28;;;9.60;99.90;;;;;;5011637;28;20442;-61
2022/12/20 08:43:20;;;;;;;4.68;2.65;;;9.60;99.90;;;;;;5027570;28;20046;-61
2022/12/20 08:45:54;;;;;;;4.53;2.90;;;9.70;99.90;;;;;;5018782;28;20033;-61
2022/12/20 08:48:21;;;;;;;4.03;3.08;;;9.60;99.90;;;;;;5015868;28;20518;-61
2022/12/20 08:50:46;;;;;;;5.50;3.13;;;9.60;99.90;;;;;;5010378;28;20042;-61
2022/12/20 08:53:13;;;;;;;7.28;2.78;;;9.70;99.90;;;;;;5010448;28;20056;-61
2022/12/20 08:55:39;;;;;;;7.45;2.88;;;9.70;99.90;;;;;;4997784;28;20080;-61
2022/12/20 08:58:05;;;;;;;4.68;2.92;;;9.70;99.90;;;;;;4985257;28;20050;-61
2022/12/20 09:00:31;;;;;;;7.90;2.97;;;9.70;99.90;;;;;;5019051;28;20147;-61
2022/12/20 09:02:56;;;;;;;4.55;3.22;;;9.60;99.90;;;;;;5029397;28;20045;-61
2022/12/20 09:05:22;;;;;;;2.65;2.28;;;9.60;99.90;;;;;;5028094;28;20124;-61
2022/12/20 09:07:49;;;;;;;2.70;2.45;;;9.70;99.90;;;;;;5010994;28;20049;-61
2022/12/20 09:10:14;;;;;;;5.75;3.00;;;9.70;99.90;;;;;;5028902;28;20045;-61
2022/12/20 09:12:40;;;;;;;4.72;2.78;;;9.70;99.90;;;;;;5025356;28;20052;-61
2022/12/20 09:15:06;;;;;;;4.93;2.70;;;9.70;99.90;;;;;;5029136;28;20480;-61
2022/12/20 09:17:32;;;;;;;5.93;2.88;;;9.70;99.90;;;;;;5027801;28;20054;-61
2022/12/20 09:19:58;;;;;;;4.30;2.47;;;9.70;99.90;;;;;;5028455;28;20044;-61
2022/12/20 09:22:24;;;;;;;9.73;2.53;;;9.70;99.90;;;;;;4990058;28;20148;-61
2022/12/20 09:24:49;;;;;;;2.72;1.90;;;9.80;99.90;;;;;;5029017;28;20512;-61
2022/12/20 09:27:15;;;;;;;7.78;2.80;;;9.80;99.90;;;;;;5028792;28;20471;-61
2022/12/20 09:29:40;;;;;;;7.35;2.15;;;9.80;99.90;;;;;;5026598;28;20049;-61
2022/12/20 09:32:07;;;;;;;4.13;2.65;;;9.80;99.90;;;;;;5010551;28;20049;-61
2022/12/20 09:34:33;;;;;;;5.45;2.13;;;9.80;99.90;;;;;;5021673;28;20045;-61
2022/12/20 09:36:58;;;;;;;4.88;2.28;;;9.80;99.90;;;;;;5009912;28;20418;-61
2022/12/20 09:39:25;;;;;;;4.65;2.25;;;9.80;99.90;;;;;;5010610;28;20042;-61
2022/12/20 09:41:50;;;;;;;4.68;2.72;;;9.80;99.90;;;;;;4991589;28;20447;-62
2022/12/20 09:44:30;;;;;;;5.07;2.20;;;9.90;99.90;;;;;;5013038;28;20048;-61
2022/12/20 09:47:00;;;;;;;4.93;2.08;;;9.90;99.90;;;;;;5012195;28;20204;-61
2022/12/20 09:49:34;;;;;;;6.03;2.03;;;9.90;99.90;;;;;;5025159;28;20052;-61
2022/12/20 09:52:18;;;;;;;3.72;1.88;;;10.00;99.90;;;;;;5013548;28;20407;-61
2022/12/20 09:54:48;;;;;;;2.30;2.08;;;10.00;99.90;;;;;;5019697;28;20461;-61
2022/12/20 09:57:33;;;;;;;6.50;2.40;;;10.10;99.90;;;;;;5004161;28;20111;-61
2022/12/20 10:00:00;;;;;;;4.85;1.80;;;10.10;99.90;;;;;;5015599;28;20594;-61
2022/12/20 10:02:28;;;;;;;4.05;1.80;;;10.20;99.90;;;;;;5018433;28;20049;-61
2022/12/20 10:04:54;;;;;;;3.58;2.25;;;10.20;99.90;;;;;;5015824;28;20120;-61
2022/12/20 10:08:01;;;;;;;3.83;1.85;;;10.20;99.90;;;;;;5000993;28;20570;-61
2022/12/20 10:10:46;;;;;;;7.30;2.00;;;10.30;99.90;;;;;;5012925;28;20049;-61
2022/12/20 10:13:21;;;;;;;3.40;2.05;;;10.30;99.90;;;;;;5024941;28;20172;-61
2022/12/20 10:16:19;;;;;;;3.72;1.85;;;10.30;99.90;;;;;;5013549;28;20052;-61
2022/12/20 10:19:06;;;;;;;4.10;2.42;;;10.30;99.90;;;;;;4994150;28;20116;-61
2022/12/20 10:21:54;;;;;;;4.82;2.50;;;10.30;99.90;;;;;;5008494;28;20379;-61
2022/12/20 10:24:31;;;;;;;2.80;2.15;;;10.30;99.90;;;;;;5007011;28;20057;-61
2022/12/20 10:27:17;;;;;;;6.57;2.40;;;10.30;99.90;;;;;;5009881;28;20046;-61
2022/12/20 10:29:43;;;;;;;5.47;2.25;;;10.30;99.90;;;;;;5012236;28;20056;-61
2022/12/20 10:32:16;;;;;;;3.40;2.15;;;10.30;99.90;;;;;;5016857;28;20438;-61
2022/12/20 10:35:17;;;;;;;4.38;2.33;;;10.30;99.90;;;;;;5012279;28;20065;-61
2022/12/20 10:37:57;;;;;;;6.50;2.22;;;10.30;99.90;;;;;;5019647;28;20084;-61
2022/12/20 10:40:32;;;;;;;4.88;2.00;;;10.30;99.90;;;;;;4999701;28;20058;-61
2022/12/20 10:42:59;;;;;;;4.07;1.90;;;10.30;99.90;;;;;;5008665;28;20042;-61
2022/12/20 10:45:33;;;;;;;3.85;2.30;;;10.30;99.90;;;;;;5003038;28;20046;-61
2022/12/20 10:48:02;;;;;;;4.07;2.50;;;10.30;99.90;;;;;;5011038;28;20496;-61
2022/12/20 10:50:28;;;;;;;3.78;2.38;;;10.30;99.90;;;;;;5007439;28;20554;-62
2022/12/20 10:53:09;;;;;;;2.97;1.83;;;10.30;99.90;;;;;;4970828;28;20038;-62
2022/12/20 10:55:36;;;;;;;4.10;2.53;;;10.30;99.90;;;;;;5013034;28;20037;-61
2022/12/20 10:58:20;;;;;;;6.15;2.50;;;10.30;99.90;;;;;;4998847;28;20137;-61
2022/12/20 11:00:46;;;;;;;7.13;1.75;;;10.30;99.90;;;;;;5022106;28;20041;-61
2022/12/20 11:03:14;;;;;;;7.05;2.42;;;10.30;99.90;;;;;;5013964;28;20048;-61
2022/12/20 11:05:55;;;;;;;4.10;2.40;;;10.30;99.90;;;;;;5006667;28;20099;-61
2022/12/20 11:08:23;;;;;;;3.25;2.42;;;10.30;99.90;;;;;;5026812;28;20052;-61
2022/12/20 11:10:50;;;;;;;3.85;2.13;;;10.30;99.90;;;;;;5025802;28;20048;-61
2022/12/20 11:13:26;;;;;;;3.78;2.45;;;10.40;99.90;;;;;;5011348;28;20068;-61
2022/12/20 11:16:00;;;;;;;3.88;2.28;;;10.40;99.90;;;;;;4990973;28;20586;-61
2022/12/20 11:18:31;;;;;;;5.00;1.95;;;10.40;99.90;;;;;;5013039;28;20084;-61
2022/12/20 11:21:06;;;;;;;7.72;2.63;;;10.40;99.90;;;;;;5023603;28;20041;-61
2022/12/20 11:23:47;;;;;;;5.43;2.90;;;10.50;99.90;;;;;;4995580;28;20408;-61
2022/12/20 11:26:13;;;;;;;;;;;10.50;99.90;;;;;;5000976;28;20196;-61
2022/12/20 11:28:57;;;;;;;9.60;1.75;;;10.40;99.90;;;;;;5011587;28;19928;-61
2022/12/20 11:31:45;;;;;;;2.60;1.83;;;10.40;99.90;;;;;;5007356;28;20479;-61
2022/12/20 11:34:37;;;;;;;9.05;2.45;;;10.40;99.90;;;;;;5009860;28;20129;-61
2022/12/20 11:37:25;;;;;;;5.75;2.38;;;10.50;99.90;;;;;;5002318;28;20060;-61
2022/12/20 11:40:16;;;;;;;5.30;1.90;;;10.40;99.90;;;;;;5012509;28;20161;-61
2022/12/20 11:43:25;;;;;;;6.57;2.50;;;10.50;99.90;;;;;;5011322;28;20407;-61
2022/12/20 11:46:09;;;;;;;5.47;3.08;;;10.50;99.90;;;;;;5027945;28;20089;-61
2022/12/20 11:49:00;;;;;;;8.02;2.95;;;10.50;99.90;;;;;;5022606;28;20052;-61
2022/12/20 11:51:51;;;;;;;6.20;2.70;;;10.50;99.90;;;;;;5015701;28;20522;-61
2022/12/20 11:54:29;;;;;;;4.88;2.47;;;10.50;99.90;;;;;;5014623;28;20049;-61
2022/12/20 11:57:08;;;;;;;4.75;2.67;;;10.50;99.90;;;;;;5015809;28;20087;-61
2022/12/20 11:59:49;;;;;;;4.07;2.65;;;10.40;99.90;;;;;;5015554;28;20488;-61
2022/12/20 12:02:59;;;;;;;5.30;2.40;;;10.50;99.90;;;;;;5027752;28;20049;-61
2022/12/20 12:05:43;;;;;;;3.58;1.95;;;10.50;99.90;;;;;;4980305;28;20069;-61
2022/12/20 12:08:24;;;;;;;3.58;1.90;;;10.50;99.90;;;;;;5029925;28;20156;-61
2022/12/20 12:11:00;;;;;;;2.08;1.85;;;10.50;99.90;;;;;;5028209;28;20108;-62
2022/12/20 12:13:30;;;;;;;1.58;1.48;;;10.50;99.90;;;;;;5009081;28;20046;-61
2022/12/20 12:16:15;;;;;;;3.63;2.13;;;10.50;99.90;;;;;;5016298;28;20041;-61
2022/12/20 12:18:41;;;;;;;1.88;1.70;;;10.50;99.90;;;;;;4998169;28;20025;-61
2022/12/20 12:21:07;;;;;;;1.83;1.52;;;10.50;99.90;;;;;;5026428;28;20107;-61
2022/12/20 12:23:48;;;;;;;5.05;2.17;;;10.50;99.90;;;;;;5028885;28;20049;-61
2022/12/20 12:26:35;;;;;;;4.82;2.00;;;10.40;99.90;;;;;;5012235;28;20144;-61
2022/12/20 12:29:16;;;;;;;3.67;2.00;;;10.50;99.90;;;;;;5012331;28;20571;-61
2022/12/20 12:31:59;;;;;;;4.63;1.98;;;10.40;99.90;;;;;;5010261;28;20053;-61
2022/12/20 12:34:50;;;;;;;1.80;1.70;;;10.40;99.90;;;;;;5009338;28;20053;-62
2022/12/20 12:37:40;;;;;;;3.50;2.05;;;10.40;99.90;;;;;;5017984;28;20458;-61
2022/12/20 12:40:25;;;;;;;7.40;1.60;;;10.50;99.90;;;;;;5023905;28;20050;-61
2022/12/20 12:43:29;;;;;;;4.97;2.10;;;10.50;99.90;;;;;;5021204;28;20091;-61
2022/12/20 12:46:01;;;;;;;5.28;1.60;;;10.50;99.90;;;;;;5026898;28;20045;-61
2022/12/20 12:48:47;;;;;;;2.35;1.52;;;10.50;99.90;;;;;;5021490;28;20167;-61
2022/12/20 12:51:26;;;;;;;2.08;1.88;;;10.50;99.90;;;;;;5015269;28;20119;-61
2022/12/20 12:54:00;;;;;;;5.03;1.60;;;10.50;99.90;;;;;;5018353;28;20049;-61
2022/12/20 12:56:26;;;;;;;1.52;1.42;;;10.50;99.90;;;;;;5021335;28;20038;-61
2022/12/20 12:59:10;;;;;;;4.47;2.13;;;10.50;99.90;;;;;;5019754;28;20072;-61
2022/12/20 13:01:46;;;;;;;3.00;1.58;;;10.50;99.90;;;;;;5009630;28;20395;-61
2022/12/20 13:04:20;;;;;;;4.18;2.38;;;10.50;99.90;;;;;;5020318;28;20386;-61
2022/12/20 13:06:46;;;;;;;3.38;1.75;;;10.50;99.90;;;;;;5010175;28;20068;-61
2022/12/20 13:09:34;;;;;;;2.67;1.73;;;10.50;99.90;;;;;;5011035;28;20050;-61
2022/12/20 13:12:35;;;;;;;2.00;1.80;;;10.50;99.90;;;;;;5018663;28;20053;-61
2022/12/20 13:15:21;;;;;;;3.35;2.08;;;10.50;99.90;;;;;;5019335;28;20052;-61
2022/12/20 13:17:52;;;;;;;4.93;2.10;;;10.40;99.90;;;;;;5007306;28;20593;-62
2022/12/20 13:20:23;;;;;;;2.70;1.73;;;10.40;99.90;;;;;;5020990;28;20088;-61
2022/12/20 13:23:07;;;;;;;2.45;1.40;;;10.40;99.90;;;;;;5013347;28;20084;-61
2022/12/20 13:25:41;;;;;;;3.85;1.85;;;10.40;99.90;;;;;;5025118;28;20041;-62